createdAt,value
2023-05-19T00:02:32.841Z,23.2
2023-05-19T00:08:25.011Z,23.1
2023-05-19T00:14:01.374Z,23.1
2023-05-19T00:19:53.612Z,23.1
2023-05-19T00:25:46.015Z,23
2023-05-19T00:31:37.236Z,23
2023-05-19T00:37:29.246Z,22.9
2023-05-19T00:43:06.117Z,22.9
2023-05-19T00:48:42.490Z,22.9
2023-05-19T00:54:19.028Z,22.8
2023-05-19T00:59:55.968Z,22.7
2023-05-19T01:05:48.771Z,22.6
2023-05-19T01:11:40.872Z,22.5
2023-05-19T01:17:16.789Z,22.4
2023-05-19T01:23:09.080Z,22.4
2023-05-19T01:28:44.744Z,22.3
2023-05-19T01:34:06.495Z,22.2
2023-05-19T01:39:42.226Z,22.1
2023-05-19T01:45:18.631Z,22
2023-05-19T01:50:57.034Z,21.9
2023-05-19T01:56:48.157Z,21.9
2023-05-19T02:02:24.686Z,21.8
2023-05-19T02:08:16.114Z,21.6
2023-05-19T02:13:51.900Z,21.6
2023-05-19T02:19:44.600Z,21.4
2023-05-19T02:25:20.650Z,21.3
2023-05-19T02:31:12.335Z,21.2
2023-05-19T02:42:25.490Z,21
2023-05-19T02:47:46.114Z,20.9
2023-05-19T02:53:07.374Z,20.8
2023-05-19T02:58:59.325Z,20.8
2023-05-19T03:04:36.453Z,20.6
2023-05-19T03:10:28.686Z,20.5
2023-05-19T03:16:04.686Z,20.4
2023-05-19T03:21:56.674Z,20.3
2023-05-19T03:27:48.000Z,20.2
2023-05-19T03:33:41.900Z,20.1
2023-05-19T03:39:32.795Z,19.9
2023-05-19T03:45:24.945Z,19.8
2023-05-19T03:51:16.644Z,19.8
2023-05-19T03:56:52.201Z,19.6
2023-05-19T04:02:44.891Z,19.5
2023-05-19T04:08:36.859Z,19.4
2023-05-19T04:14:27.228Z,19.3
2023-05-19T04:20:20.038Z,19.3
2023-05-19T04:26:11.551Z,19.1
2023-05-19T04:32:02.731Z,19.1
2023-05-19T04:37:42.400Z,18.9
2023-05-19T04:43:34.495Z,18.9
2023-05-19T04:49:26.853Z,18.8
2023-05-19T04:55:20.035Z,18.8
2023-05-19T05:00:56.131Z,18.6
2023-05-19T05:06:48.052Z,18.6
2023-05-19T05:12:39.817Z,18.6
2023-05-19T05:18:31.789Z,18.4
2023-05-19T05:24:23.293Z,18.4
2023-05-19T05:29:59.837Z,18.4
2023-05-19T05:35:22.030Z,18.3
2023-05-19T05:41:12.862Z,18.3
2023-05-19T05:46:51.878Z,18.2
2023-05-19T05:52:55.891Z,18.2
2023-05-19T05:58:31.542Z,18.1
2023-05-19T06:04:08.331Z,18.1
2023-05-19T06:09:45.818Z,18.1
2023-05-19T06:15:37.788Z,18
2023-05-19T06:20:59.747Z,18
2023-05-19T06:26:52.486Z,17.9
2023-05-19T06:32:29.887Z,17.9
2023-05-19T06:38:25.081Z,17.9
2023-05-19T06:44:02.390Z,17.9
2023-05-19T06:49:40.536Z,17.9
2023-05-19T06:55:17.386Z,17.8
2023-05-19T07:01:02.911Z,17.8
2023-05-19T07:06:58.035Z,17.8
2023-05-19T07:12:36.001Z,17.8
2023-05-19T07:17:57.731Z,17.8
2023-05-19T07:23:17.567Z,17.8
2023-05-19T07:28:40.742Z,17.7
2023-05-19T07:34:18.271Z,17.7
2023-05-19T07:39:55.214Z,17.7
2023-05-19T07:45:00.904Z,17.7
2023-05-19T07:50:40.708Z,17.7
2023-05-19T07:56:01.404Z,17.6
2023-05-19T08:01:22.689Z,17.6
2023-05-19T08:07:00.263Z,17.6
2023-05-19T08:12:35.443Z,17.6
2023-05-19T08:18:12.387Z,17.6
2023-05-19T08:23:48.849Z,17.6
2023-05-19T08:29:23.951Z,17.6
2023-05-19T08:35:00.246Z,17.6
2023-05-19T08:40:21.270Z,17.6
2023-05-19T08:45:42.001Z,17.6
2023-05-19T08:51:21.185Z,17.6
2023-05-19T08:57:12.400Z,17.6
2023-05-19T09:02:55.524Z,17.6
2023-05-19T09:08:45.855Z,17.6
2023-05-19T09:14:22.621Z,17.6
2023-05-19T09:20:01.962Z,17.6
2023-05-19T09:25:38.598Z,17.6
2023-05-19T09:31:15.192Z,17.6
2023-05-19T09:36:51.576Z,17.6
2023-05-19T09:42:27.915Z,17.6
2023-05-19T09:48:20.745Z,17.6
2023-05-19T09:53:41.636Z,17.7
2023-05-19T09:59:21.161Z,17.7
2023-05-19T10:05:15.166Z,17.7
2023-05-19T10:10:51.895Z,17.6
2023-05-19T10:16:44.575Z,17.6
2023-05-19T10:22:06.108Z,17.6
2023-05-19T10:27:57.610Z,17.6
2023-05-19T10:33:51.690Z,17.6
2023-05-19T10:39:28.711Z,17.6
2023-05-19T10:45:05.791Z,17.6
2023-05-19T10:50:57.637Z,17.6
2023-05-19T10:56:50.588Z,17.6
2023-05-19T11:02:28.924Z,17.6
2023-05-19T11:08:27.048Z,17.6
2023-05-19T11:14:32.809Z,17.6
2023-05-19T11:20:25.194Z,17.6
2023-05-19T11:26:20.630Z,17.6
2023-05-19T11:32:13.411Z,17.6
2023-05-19T11:38:06.073Z,17.6
2023-05-19T11:43:58.236Z,17.6
2023-05-19T11:50:09.608Z,17.6
2023-05-19T11:56:04.281Z,17.6
2023-05-19T12:02:10.618Z,17.6
2023-05-19T12:08:09.564Z,18
2023-05-19T12:14:03.143Z,18.3
2023-05-19T12:19:56.718Z,18.3
2023-05-19T12:25:41.389Z,18.4
2023-05-19T12:31:33.339Z,18.4
2023-05-19T12:37:26.789Z,18.4
2023-05-19T12:43:19.404Z,18.5
2023-05-19T12:49:11.416Z,18.5
2023-05-19T12:55:06.556Z,18.5
2023-05-19T13:01:15.657Z,18.6
2023-05-19T13:07:09.602Z,18.6
2023-05-19T13:13:02.408Z,18.6
2023-05-19T13:18:55.102Z,18.6
2023-05-19T13:30:22.299Z,18.8
2023-05-19T13:35:59.168Z,18.8
2023-05-19T13:41:51.375Z,18.8
2023-05-19T13:47:54.799Z,18.8
2023-05-19T13:53:47.109Z,18.8
2023-05-19T13:59:49.252Z,18.8
2023-05-19T14:05:31.642Z,18.8
2023-05-19T14:11:09.338Z,18.8
2023-05-19T14:17:29.391Z,18.8
2023-05-19T14:23:24.242Z,18.8
2023-05-19T14:29:17.494Z,18.8
2023-05-19T14:34:59.061Z,18.8
2023-05-19T14:40:51.032Z,18.9
2023-05-19T14:46:28.037Z,18.8
2023-05-19T14:52:08.176Z,18.8
2023-05-19T14:57:46.216Z,18.8
2023-05-19T15:03:36.325Z,18.9
2023-05-19T15:09:16.602Z,18.8
2023-05-19T15:15:08.795Z,18.9
2023-05-19T15:21:20.055Z,18.8
2023-05-19T15:27:10.917Z,18.8
2023-05-19T15:32:47.678Z,18.8
2023-05-19T15:38:23.966Z,18.9
2023-05-19T15:44:15.033Z,18.8
2023-05-19T15:50:07.493Z,18.9
2023-05-19T15:55:59.312Z,18.9
2023-05-19T16:01:34.859Z,18.9
2023-05-19T16:07:14.404Z,18.9
2023-05-19T16:13:06.422Z,18.9
2023-05-19T16:18:59.154Z,18.9
2023-05-19T16:24:36.010Z,18.9
2023-05-19T16:30:12.217Z,18.9
2023-05-19T16:35:48.820Z,18.8
2023-05-19T16:41:26.279Z,18.8
2023-05-19T16:47:04.361Z,18.9
2023-05-19T16:52:40.804Z,18.8
2023-05-19T16:58:32.689Z,18.8
2023-05-19T17:04:11.048Z,18.8
2023-05-19T17:09:18.627Z,18.8
2023-05-19T17:14:56.238Z,18.8
2023-05-19T17:20:32.956Z,18.8
2023-05-19T17:26:08.831Z,18.8
2023-05-19T17:32:00.850Z,18.8
2023-05-19T17:37:40.262Z,18.8
2023-05-19T17:43:15.927Z,18.8
2023-05-19T17:49:07.434Z,18.8
2023-05-19T17:54:28.386Z,18.8
2023-05-19T17:59:33.378Z,18.8
2023-05-19T18:05:10.921Z,18.8
2023-05-19T18:10:50.583Z,18.8
2023-05-19T18:16:26.294Z,18.8
2023-05-19T18:22:03.310Z,18.8
2023-05-19T18:27:39.697Z,18.8
2023-05-19T19:09:24.010Z,18.6
2023-05-19T19:15:02.505Z,18.6
2023-05-19T19:20:38.748Z,18.6
2023-05-19T19:26:14.369Z,18.6
2023-05-19T19:31:51.249Z,18.6
2023-05-19T19:37:29.273Z,18.6
2023-05-19T19:43:05.621Z,18.6
2023-05-19T19:48:42.824Z,18.6
2023-05-19T19:54:33.819Z,18.6
2023-05-19T19:59:53.650Z,18.6
2023-05-19T20:06:05.620Z,18.6
2023-05-19T20:11:25.870Z,18.5
2023-05-19T20:17:03.387Z,18.5
2023-05-19T20:22:42.090Z,18.5
2023-05-19T20:28:40.669Z,18.5
2023-05-19T20:34:18.348Z,18.5
2023-05-19T20:39:39.108Z,18.5
2023-05-19T20:45:14.903Z,18.4
2023-05-19T20:50:51.555Z,18.4
2023-05-19T20:56:28.056Z,18.4
2023-05-19T21:02:03.785Z,18.4
2023-05-19T21:07:56.007Z,18.4
2023-05-19T21:13:32.322Z,18.4
2023-05-19T21:19:07.871Z,18.4
2023-05-19T21:24:44.599Z,18.4
2023-05-19T21:30:36.555Z,18.4
2023-05-19T21:36:27.356Z,18.4
2023-05-19T21:42:14.754Z,18.4
2023-05-19T21:48:09.401Z,18.4
2023-05-19T21:53:44.911Z,18.4
2023-05-19T21:59:36.401Z,18.4
2023-05-19T22:05:29.446Z,18.3
2023-05-19T22:11:20.051Z,18.3
2023-05-19T22:17:10.808Z,18.3
2023-05-19T22:23:00.586Z,18.3
2023-05-19T22:28:52.086Z,18.3
2023-05-19T22:34:46.648Z,18.3
2023-05-19T22:40:39.409Z,18.3
2023-05-19T22:46:31.548Z,18.3
2023-05-19T22:52:26.021Z,18.3
2023-05-19T22:58:18.548Z,18.3
2023-05-19T23:04:09.581Z,18.2
2023-05-19T23:10:00.096Z,18.3
2023-05-19T23:15:52.526Z,18.2
2023-05-19T23:21:44.772Z,18.2
2023-05-19T23:27:36.785Z,18.2
2023-05-19T23:33:30.939Z,18.2
2023-05-19T23:39:21.787Z,18.2
2023-05-19T23:45:12.886Z,18.2
2023-05-19T23:51:04.859Z,18.2
2023-05-19T23:56:56.755Z,18.1
